Time;durP1;ratioP1;P1;durP2;ratioP2;P2;SDS_P1;SDS_P2;PMS_P1;PMS_P2;Temp;Humidity;BMP_temperature;BMP_pressure;BME280_temperature;BME280_humidity;BME280_pressure;Samples;Min_cycle;Max_cycle;Signal;HPM_P1;HPM_P2
2023/12/09 00:01:14;;;;;;;18.50;7.47;;;;;;;;;;6213985;23;20180;-92
2023/12/09 00:03:43;;;;;;;20.77;8.17;;;;;;;;;;6214236;23;20179;-91
2023/12/09 00:06:11;;;;;;;20.80;6.87;;;;;;;;;;6214246;23;20249;-91
2023/12/09 00:08:41;;;;;;;12.40;5.07;;;;;;;;;;6213843;23;20189;-92
2023/12/09 00:11:10;;;;;;;31.03;8.83;;;;;;;;;;6213298;23;20167;-92
2023/12/09 00:13:40;;;;;;;21.80;9.23;;;;;;;;;;6213709;23;20175;-92
2023/12/09 00:16:09;;;;;;;26.33;5.17;;;;;;;;;;6214469;23;20175;-91
2023/12/09 00:18:37;;;;;;;23.50;5.87;;;;;;;;;;6214461;23;20201;-91
2023/12/09 00:21:06;;;;;;;21.97;5.53;;;;;;;;;;6213903;23;20178;-91
2023/12/09 00:23:35;;;;;;;27.73;9.27;;;;;;;;;;6214264;23;20201;-90
2023/12/09 00:26:14;;;;;;;22.13;9.33;;;;;;;;;;6214277;23;20171;-91
2023/12/09 00:28:44;;;;;;;22.73;9.50;;;;;;;;;;6214322;23;20258;-91
2023/12/09 00:31:13;;;;;;;29.53;9.83;;;;;;;;;;6213707;23;20180;-91
2023/12/09 00:33:42;;;;;;;23.70;12.03;;;;;;;;;;6214414;23;20180;-92
2023/12/09 00:36:10;;;;;;;29.47;8.17;;;;;;;;;;6214155;23;20188;-92
2023/12/09 00:38:39;;;;;;;19.20;8.00;;;;;;;;;;6214178;23;20283;-91
2023/12/09 00:41:08;;;;;;;27.57;8.17;;;;;;;;;;6212896;23;20208;-91
2023/12/09 00:43:36;;;;;;;10.87;4.23;;;;;;;;;;6214463;23;20178;-92
2023/12/09 00:46:07;;;;;;;34.87;11.13;;;;;;;;;;6213986;23;20175;-93
2023/12/09 00:48:35;;;;;;;32.53;10.80;;;;;;;;;;6214346;23;20211;-90
2023/12/09 00:51:04;;;;;;;23.80;10.07;;;;;;;;;;6213091;23;20171;-91
2023/12/09 00:53:33;;;;;;;29.33;10.00;;;;;;;;;;6213912;23;20172;-90
2023/12/09 00:56:01;;;;;;;24.03;10.63;;;;;;;;;;6215692;23;20254;-92
2023/12/09 00:58:30;;;;;;;20.53;7.57;;;;;;;;;;6215853;23;20213;-92
2023/12/09 01:00:58;;;;;;;30.53;12.37;;;;;;;;;;6215346;23;20206;-90
2023/12/09 01:03:28;;;;;;;17.20;7.30;;;;;;;;;;6215923;23;20177;-92
2023/12/09 01:05:57;;;;;;;23.20;9.83;;;;;;;;;;6216516;23;20186;-91
2023/12/09 01:08:26;;;;;;;24.37;11.37;;;;;;;;;;6216248;23;20195;-92
2023/12/09 01:10:54;;;;;;;28.47;9.77;;;;;;;;;;6215427;23;20171;-91
2023/12/09 01:13:23;;;;;;;29.90;13.30;;;;;;;;;;6214716;23;20172;-91
2023/12/09 01:15:52;;;;;;;24.67;11.50;;;;;;;;;;6214983;23;20274;-91
2023/12/09 01:18:20;;;;;;;16.70;9.83;;;;;;;;;;6215650;23;20179;-92
2023/12/09 01:20:50;;;;;;;22.87;12.73;;;;;;;;;;6215528;23;20178;-91
2023/12/09 01:23:19;;;;;;;18.47;8.80;;;;;;;;;;6215358;23;20214;-91
2023/12/09 01:25:47;;;;;;;27.97;11.17;;;;;;;;;;6215700;23;20194;-91
2023/12/09 01:28:16;;;;;;;24.03;10.53;;;;;;;;;;6215784;23;20208;-91
2023/12/09 01:30:44;;;;;;;29.63;12.83;;;;;;;;;;6215678;23;20174;-91
2023/12/09 01:33:13;;;;;;;31.57;11.30;;;;;;;;;;6215790;23;20261;-91
2023/12/09 01:35:41;;;;;;;31.73;11.43;;;;;;;;;;6215812;23;20175;-91
2023/12/09 01:38:14;;;;;;;27.90;13.53;;;;;;;;;;6215984;23;20186;-92
2023/12/09 01:40:43;;;;;;;27.90;11.57;;;;;;;;;;6215082;23;20202;-91
2023/12/09 01:43:12;;;;;;;12.40;6.50;;;;;;;;;;6215276;23;20405;-92
2023/12/09 01:45:40;;;;;;;22.33;7.50;;;;;;;;;;6215168;23;20174;-91
2023/12/09 01:48:09;;;;;;;25.00;10.53;;;;;;;;;;6215444;23;20199;-91
2023/12/09 01:50:38;;;;;;;23.23;11.60;;;;;;;;;;6215446;23;20180;-92
2023/12/09 01:53:06;;;;;;;26.80;13.07;;;;;;;;;;6215479;23;20182;-91
2023/12/09 01:55:36;;;;;;;28.97;12.13;;;;;;;;;;6215202;23;20197;-92
2023/12/09 01:58:05;;;;;;;35.47;14.30;;;;;;;;;;6216400;23;20181;-92
2023/12/09 02:00:34;;;;;;;17.03;7.17;;;;;;;;;;6215208;23;20198;-91
2023/12/09 02:03:02;;;;;;;25.57;10.93;;;;;;;;;;6214390;23;20178;-91
2023/12/09 02:05:31;;;;;;;33.50;10.80;;;;;;;;;;6214941;23;20222;-91
2023/12/09 02:08:00;;;;;;;23.20;10.23;;;;;;;;;;6215288;23;20180;-91
2023/12/09 02:10:28;;;;;;;24.80;11.80;;;;;;;;;;6214693;23;20167;-92
2023/12/09 02:13:02;;;;;;;17.00;8.90;;;;;;;;;;6214450;23;20181;-91
2023/12/09 02:15:37;;;;;;;30.60;11.93;;;;;;;;;;6214804;23;20183;-92
2023/12/09 02:18:06;;;;;;;29.57;12.73;;;;;;;;;;6215003;23;20177;-91
2023/12/09 02:20:35;;;;;;;27.40;13.17;;;;;;;;;;6213702;23;20186;-91
2023/12/09 02:23:08;;;;;;;36.20;14.67;;;;;;;;;;6214156;23;20199;-91
2023/12/09 02:25:37;;;;;;;29.13;15.30;;;;;;;;;;6215071;23;20182;-91
2023/12/09 02:28:09;;;;;;;25.93;11.30;;;;;;;;;;6214731;23;20207;-91
2023/12/09 02:30:41;;;;;;;29.47;13.57;;;;;;;;;;6214808;23;20165;-91
2023/12/09 02:33:10;;;;;;;33.23;11.67;;;;;;;;;;6214561;23;20182;-93
2023/12/09 02:35:41;;;;;;;30.60;13.33;;;;;;;;;;6214755;23;20167;-92
2023/12/09 02:38:12;;;;;;;27.23;14.53;;;;;;;;;;6214717;23;20174;-91
2023/12/09 02:40:40;;;;;;;33.43;17.63;;;;;;;;;;6214748;23;20203;-92
2023/12/09 02:43:10;;;;;;;42.53;17.70;;;;;;;;;;6214899;23;20180;-91
2023/12/09 02:45:38;;;;;;;32.53;12.87;;;;;;;;;;6214759;23;20176;-92
2023/12/09 02:48:07;;;;;;;37.50;16.20;;;;;;;;;;6214831;23;20170;-91
2023/12/09 02:50:36;;;;;;;16.53;9.07;;;;;;;;;;6214434;23;20166;-90
2023/12/09 02:53:05;;;;;;;18.30;8.70;;;;;;;;;;6213308;23;20178;-91
2023/12/09 02:55:35;;;;;;;27.23;16.07;;;;;;;;;;6214590;23;20185;-91
2023/12/09 02:58:03;;;;;;;35.87;16.30;;;;;;;;;;6214488;23;20201;-91
2023/12/09 03:00:32;;;;;;;24.90;15.00;;;;;;;;;;6214102;23;20190;-91
2023/12/09 03:03:01;;;;;;;38.57;18.57;;;;;;;;;;6214113;23;20166;-91
2023/12/09 03:05:29;;;;;;;47.83;20.70;;;;;;;;;;6215187;23;20249;-91
2023/12/09 03:07:58;;;;;;;50.63;22.50;;;;;;;;;;6214719;23;20185;-92
2023/12/09 03:10:26;;;;;;;29.50;14.03;;;;;;;;;;6214595;23;20210;-91
2023/12/09 03:12:56;;;;;;;37.83;20.90;;;;;;;;;;6214038;23;20185;-91
2023/12/09 03:15:25;;;;;;;33.37;14.13;;;;;;;;;;6214608;23;20200;-90
2023/12/09 03:17:54;;;;;;;36.50;17.93;;;;;;;;;;6214021;23;20166;-91
2023/12/09 03:20:25;;;;;;;45.97;22.87;;;;;;;;;;6214147;23;20182;-91
2023/12/09 03:22:53;;;;;;;43.87;20.50;;;;;;;;;;6213376;23;20190;-91
2023/12/09 03:25:22;;;;;;;42.67;19.17;;;;;;;;;;6213918;23;20181;-90
2023/12/09 03:27:50;;;;;;;47.00;21.70;;;;;;;;;;6213358;23;20208;-91
2023/12/09 03:30:20;;;;;;;33.03;18.83;;;;;;;;;;6213538;23;20166;-90
2023/12/09 03:32:49;;;;;;;25.37;11.50;;;;;;;;;;6213872;23;20232;-91
2023/12/09 03:35:17;;;;;;;30.90;14.43;;;;;;;;;;6214169;23;20170;-91
2023/12/09 03:37:46;;;;;;;41.80;18.40;;;;;;;;;;6214538;23;20186;-91
2023/12/09 03:40:15;;;;;;;17.00;8.57;;;;;;;;;;6214233;23;20195;-91
2023/12/09 03:42:43;;;;;;;32.03;15.83;;;;;;;;;;6213978;23;20175;-91
2023/12/09 03:45:12;;;;;;;32.23;17.80;;;;;;;;;;6214352;23;20174;-91
2023/12/09 03:47:42;;;;;;;28.97;15.57;;;;;;;;;;6214487;23;20193;-90
2023/12/09 03:50:11;;;;;;;32.50;15.67;;;;;;;;;;6214152;23;20163;-91
2023/12/09 03:52:39;;;;;;;30.47;14.23;;;;;;;;;;6213714;23;20174;-91
2023/12/09 03:55:09;;;;;;;21.10;10.23;;;;;;;;;;6214529;23;20179;-91
2023/12/09 03:57:37;;;;;;;33.80;18.23;;;;;;;;;;6213951;23;20174;-91
2023/12/09 04:00:07;;;;;;;31.57;13.73;;;;;;;;;;6214312;23;20193;-91
2023/12/09 04:02:35;;;;;;;29.43;14.87;;;;;;;;;;6213621;23;20297;-90
2023/12/09 04:05:07;;;;;;;30.67;13.23;;;;;;;;;;6213999;23;20170;-91
2023/12/09 04:07:36;;;;;;;24.23;12.63;;;;;;;;;;6214064;23;20193;-91
2023/12/09 04:10:05;;;;;;;23.20;9.70;;;;;;;;;;6213835;23;20197;-91
2023/12/09 04:12:34;;;;;;;18.63;9.43;;;;;;;;;;6214044;23;20178;-91
2023/12/09 04:15:03;;;;;;;30.00;14.23;;;;;;;;;;6214390;23;20179;-91
2023/12/09 04:17:32;;;;;;;30.00;14.93;;;;;;;;;;6214070;23;20190;-91
2023/12/09 04:20:00;;;;;;;19.37;9.60;;;;;;;;;;6213473;23;20221;-90
2023/12/09 04:22:30;;;;;;;26.93;14.33;;;;;;;;;;6213776;23;20195;-91
2023/12/09 04:24:59;;;;;;;30.43;12.57;;;;;;;;;;6213563;23;20193;-90
2023/12/09 04:27:27;;;;;;;23.50;12.50;;;;;;;;;;6214034;23;20210;-91
2023/12/09 04:29:56;;;;;;;27.60;12.03;;;;;;;;;;6215226;23;20174;-91
2023/12/09 04:32:25;;;;;;;18.63;8.00;;;;;;;;;;6214838;23;20166;-91
2023/12/09 04:34:53;;;;;;;35.53;11.33;;;;;;;;;;6215631;23;20234;-91
2023/12/09 04:37:22;;;;;;;15.20;6.43;;;;;;;;;;6216271;23;20226;-91
2023/12/09 04:39:52;;;;;;;27.30;9.87;;;;;;;;;;6216188;23;20185;-91
2023/12/09 04:42:21;;;;;;;18.37;8.93;;;;;;;;;;6215639;23;20198;-91
2023/12/09 04:44:49;;;;;;;27.97;12.60;;;;;;;;;;6216491;23;20174;-90
2023/12/09 04:47:18;;;;;;;28.50;11.70;;;;;;;;;;6216268;23;20289;-90
2023/12/09 04:49:46;;;;;;;27.83;9.77;;;;;;;;;;6216043;23;20179;-91
2023/12/09 04:52:15;;;;;;;29.40;11.13;;;;;;;;;;6215166;23;20217;-91
2023/12/09 04:54:43;;;;;;;23.07;7.97;;;;;;;;;;6215486;23;20185;-91
2023/12/09 04:57:13;;;;;;;20.07;10.43;;;;;;;;;;6215757;23;20179;-91
2023/12/09 04:59:42;;;;;;;20.93;9.43;;;;;;;;;;6216376;23;20221;-91
2023/12/09 05:02:10;;;;;;;31.93;12.27;;;;;;;;;;6214795;23;20186;-90
2023/12/09 05:04:39;;;;;;;35.97;11.70;;;;;;;;;;6215362;23;20178;-91
2023/12/09 05:07:07;;;;;;;24.47;10.90;;;;;;;;;;6215929;23;20174;-91
2023/12/09 05:09:36;;;;;;;23.53;12.30;;;;;;;;;;6216147;23;20189;-91
2023/12/09 05:12:05;;;;;;;31.57;14.87;;;;;;;;;;6215273;23;20171;-92
2023/12/09 05:14:35;;;;;;;31.20;15.70;;;;;;;;;;6215881;23;20182;-91
2023/12/09 05:17:04;;;;;;;25.57;12.20;;;;;;;;;;6215852;23;20265;-91
2023/12/09 05:19:32;;;;;;;31.33;14.97;;;;;;;;;;6215085;23;20190;-91
2023/12/09 05:22:01;;;;;;;27.30;13.43;;;;;;;;;;6215087;23;20195;-91
2023/12/09 05:24:29;;;;;;;28.17;13.47;;;;;;;;;;6215770;23;20175;-90
2023/12/09 05:26:58;;;;;;;30.83;15.47;;;;;;;;;;6215487;23;20206;-91
2023/12/09 05:29:26;;;;;;;33.80;17.43;;;;;;;;;;6215144;23;20170;-90
2023/12/09 05:31:56;;;;;;;30.07;13.73;;;;;;;;;;6214549;23;20175;-90
2023/12/09 05:34:25;;;;;;;32.27;18.40;;;;;;;;;;6214915;23;20254;-91
2023/12/09 05:36:53;;;;;;;31.07;16.47;;;;;;;;;;6215838;23;20201;-90
2023/12/09 05:39:22;;;;;;;26.80;13.77;;;;;;;;;;6215769;23;20185;-90
2023/12/09 05:41:50;;;;;;;8.97;4.43;;;;;;;;;;6214602;23;20200;-91
2023/12/09 05:44:19;;;;;;;27.87;15.63;;;;;;;;;;6215108;23;20178;-91
2023/12/09 05:46:47;;;;;;;30.43;16.17;;;;;;;;;;6214988;23;20170;-91
2023/12/09 05:49:17;;;;;;;28.13;18.17;;;;;;;;;;6215913;23;20174;-90
2023/12/09 05:51:46;;;;;;;38.27;18.07;;;;;;;;;;6214854;23;20178;-91
2023/12/09 05:54:14;;;;;;;24.83;12.07;;;;;;;;;;6214907;23;20182;-90
2023/12/09 05:56:48;;;;;;;27.83;14.27;;;;;;;;;;6215137;23;20174;-91
2023/12/09 05:59:17;;;;;;;26.50;15.37;;;;;;;;;;6215499;23;20204;-91
2023/12/09 06:01:45;;;;;;;32.20;17.37;;;;;;;;;;6214852;23;20221;-90
2023/12/09 06:04:14;;;;;;;35.40;19.57;;;;;;;;;;6215266;23;20170;-91
2023/12/09 06:06:44;;;;;;;38.83;22.13;;;;;;;;;;6215063;23;20178;-90
2023/12/09 06:09:12;;;;;;;30.90;17.40;;;;;;;;;;6214992;23;20250;-90
2023/12/09 06:11:41;;;;;;;28.83;15.20;;;;;;;;;;6214202;23;20173;-91
2023/12/09 06:14:09;;;;;;;30.50;16.17;;;;;;;;;;6214629;23;20257;-91
2023/12/09 06:16:38;;;;;;;31.40;18.70;;;;;;;;;;6215223;23;20178;-91
2023/12/09 06:19:06;;;;;;;29.77;18.53;;;;;;;;;;6214823;23;20175;-91
2023/12/09 06:21:35;;;;;;;34.70;19.80;;;;;;;;;;6214712;23;20191;-90
2023/12/09 06:24:05;;;;;;;38.87;21.83;;;;;;;;;;6214118;23;20236;-91
2023/12/09 06:26:34;;;;;;;35.43;16.43;;;;;;;;;;6214943;23;20205;-91
2023/12/09 06:29:02;;;;;;;34.47;18.83;;;;;;;;;;6215006;23;20197;-90
2023/12/09 06:31:31;;;;;;;35.93;19.50;;;;;;;;;;6214342;23;20170;-91
2023/12/09 06:33:59;;;;;;;31.33;16.93;;;;;;;;;;6214056;23;20193;-90
2023/12/09 06:36:28;;;;;;;35.53;18.33;;;;;;;;;;6214887;23;20174;-90
2023/12/09 06:38:56;;;;;;;33.10;21.73;;;;;;;;;;6214796;23;20171;-90
2023/12/09 06:41:26;;;;;;;39.67;21.40;;;;;;;;;;6215074;23;20170;-91
2023/12/09 06:43:55;;;;;;;33.63;20.23;;;;;;;;;;6214873;23;20181;-91
2023/12/09 06:46:23;;;;;;;36.13;25.37;;;;;;;;;;6214787;23;20182;-91
2023/12/09 06:48:52;;;;;;;50.03;31.97;;;;;;;;;;6214913;23;20174;-91
2023/12/09 06:51:20;;;;;;;37.80;23.97;;;;;;;;;;6214471;23;20228;-91
2023/12/09 06:53:49;;;;;;;42.33;27.63;;;;;;;;;;6214037;23;20224;-90
2023/12/09 06:56:21;;;;;;;42.20;29.23;;;;;;;;;;6214394;23;20210;-91
2023/12/09 06:58:51;;;;;;;43.07;27.17;;;;;;;;;;6214465;23;20166;-91
2023/12/09 07:01:21;;;;;;;40.27;25.33;;;;;;;;;;6214143;23;20171;-92
2023/12/09 07:03:50;;;;;;;44.57;28.77;;;;;;;;;;6213969;23;20174;-91
2023/12/09 07:06:21;;;;;;;44.40;26.30;;;;;;;;;;6214348;23;20182;-91
2023/12/09 07:08:50;;;;;;;39.83;26.07;;;;;;;;;;6214850;23;20197;-91
2023/12/09 07:11:19;;;;;;;43.80;32.87;;;;;;;;;;6214726;23;20258;-91
2023/12/09 07:13:47;;;;;;;48.50;26.60;;;;;;;;;;6214086;23;20175;-91
2023/12/09 07:16:18;;;;;;;43.80;24.43;;;;;;;;;;6214713;23;20206;-91
2023/12/09 07:18:47;;;;;;;44.90;24.27;;;;;;;;;;6215037;23;20178;-91
2023/12/09 07:21:16;;;;;;;48.93;29.77;;;;;;;;;;6214643;23;20185;-91
2023/12/09 07:23:45;;;;;;;51.10;35.97;;;;;;;;;;6214101;23;20198;-91
2023/12/09 07:26:14;;;;;;;57.00;35.40;;;;;;;;;;6214380;23;20258;-91
2023/12/09 07:28:42;;;;;;;45.63;29.20;;;;;;;;;;6214666;23;20225;-92
2023/12/09 07:31:11;;;;;;;43.03;28.53;;;;;;;;;;6213912;23;20166;-90
2023/12/09 07:33:41;;;;;;;50.50;28.93;;;;;;;;;;6213596;23;20173;-91
2023/12/09 07:36:10;;;;;;;52.70;29.00;;;;;;;;;;6213445;23;20174;-90
2023/12/09 07:38:39;;;;;;;51.80;36.93;;;;;;;;;;6214088;23;20174;-90
2023/12/09 07:41:07;;;;;;;50.37;37.23;;;;;;;;;;6214148;23;20265;-89
2023/12/09 07:43:36;;;;;;;45.00;27.10;;;;;;;;;;6214379;23;20186;-91
2023/12/09 07:46:08;;;;;;;48.83;31.67;;;;;;;;;;6214324;23;20257;-90
2023/12/09 07:48:36;;;;;;;49.13;29.40;;;;;;;;;;6213868;23;20174;-91
2023/12/09 07:51:07;;;;;;;49.30;26.57;;;;;;;;;;6214159;23;20175;-90
2023/12/09 07:53:35;;;;;;;30.57;18.83;;;;;;;;;;6213785;23;20216;-89
2023/12/09 07:56:05;;;;;;;50.97;32.47;;;;;;;;;;6214802;23;20184;-91
2023/12/09 07:58:33;;;;;;;32.57;19.90;;;;;;;;;;6214173;23;20170;-90
2023/12/09 08:01:01;;;;;;;54.03;36.70;;;;;;;;;;6214173;23;20181;-91
2023/12/09 08:03:34;;;;;;;46.90;30.73;;;;;;;;;;6213950;23;20236;-90
2023/12/09 08:06:03;;;;;;;51.20;28.73;;;;;;;;;;6216294;23;20178;-91
2023/12/09 08:08:33;;;;;;;46.83;30.87;;;;;;;;;;6216639;23;20201;-90
2023/12/09 08:11:03;;;;;;;42.07;31.90;;;;;;;;;;6216554;23;20174;-89
2023/12/09 08:13:31;;;;;;;42.60;32.20;;;;;;;;;;6215264;23;20189;-90
2023/12/09 08:16:00;;;;;;;46.73;30.57;;;;;;;;;;6216446;23;20181;-91
2023/12/09 08:18:28;;;;;;;42.40;33.77;;;;;;;;;;6216619;23;20245;-90
2023/12/09 08:20:58;;;;;;;46.83;35.77;;;;;;;;;;6216500;23;20181;-91
2023/12/09 08:23:27;;;;;;;47.53;33.37;;;;;;;;;;6215702;23;20285;-91
2023/12/09 08:25:57;;;;;;;31.10;20.10;;;;;;;;;;6216853;23;20178;-91
2023/12/09 08:28:27;;;;;;;50.67;33.77;;;;;;;;;;6216539;23;20202;-90
2023/12/09 08:30:55;;;;;;;50.63;36.23;;;;;;;;;;6216544;23;20174;-91
2023/12/09 08:33:24;;;;;;;35.40;25.60;;;;;;;;;;6215797;23;20166;-91
2023/12/09 08:35:53;;;;;;;40.63;35.53;;;;;;;;;;6215631;23;20166;-89
2023/12/09 08:38:22;;;;;;;31.33;15.40;;;;;;;;;;6216060;23;20186;-91
2023/12/09 08:40:50;;;;;;;44.80;28.20;;;;;;;;;;6215784;23;20174;-90
2023/12/09 08:43:20;;;;;;;41.87;30.93;;;;;;;;;;6215060;23;20191;-90
2023/12/09 08:45:49;;;;;;;40.70;25.10;;;;;;;;;;6215336;23;20186;-89
2023/12/09 08:48:18;;;;;;;37.70;26.63;;;;;;;;;;6216620;23;20177;-91
2023/12/09 08:50:47;;;;;;;45.83;34.07;;;;;;;;;;6216358;23;20179;-91
2023/12/09 08:53:15;;;;;;;31.37;20.70;;;;;;;;;;6215292;23;20167;-91
2023/12/09 08:55:44;;;;;;;46.90;29.13;;;;;;;;;;6216589;23;20175;-90
2023/12/09 08:58:13;;;;;;;40.70;31.10;;;;;;;;;;6216122;23;20239;-91
2023/12/09 09:00:43;;;;;;;34.90;22.33;;;;;;;;;;6216449;23;20178;-91
2023/12/09 09:03:13;;;;;;;42.03;25.73;;;;;;;;;;6215100;23;20209;-91
2023/12/09 09:05:42;;;;;;;39.50;24.33;;;;;;;;;;6215633;23;20186;-91
2023/12/09 09:08:10;;;;;;;36.00;28.80;;;;;;;;;;6216273;23;20178;-92
2023/12/09 09:10:39;;;;;;;32.87;20.43;;;;;;;;;;6216149;23;20272;-91
2023/12/09 09:13:07;;;;;;;25.90;19.00;;;;;;;;;;6215776;23;20166;-91
2023/12/09 09:15:37;;;;;;;28.77;20.10;;;;;;;;;;6215742;23;20209;-91
2023/12/09 09:18:07;;;;;;;37.20;22.77;;;;;;;;;;6216211;23;20213;-90
2023/12/09 09:20:36;;;;;;;34.90;21.77;;;;;;;;;;6216683;23;20174;-91
2023/12/09 09:23:03;;;;;;;60.03;18.23;;;;;;;;;;6215411;23;20186;-91
2023/12/09 09:25:31;;;;;;;26.07;14.37;;;;;;;;;;6214999;23;20225;-91
2023/12/09 09:28:02;;;;;;;34.40;24.80;;;;;;;;;;6215747;23;20214;-91
2023/12/09 09:30:31;;;;;;;34.00;22.27;;;;;;;;;;6216484;23;20189;-92
2023/12/09 09:33:00;;;;;;;26.50;20.00;;;;;;;;;;6215276;23;20358;-89
2023/12/09 09:35:30;;;;;;;29.70;17.93;;;;;;;;;;6215250;23;20177;-91
2023/12/09 09:37:59;;;;;;;37.27;25.17;;;;;;;;;;6215790;23;20179;-91
2023/12/09 09:40:27;;;;;;;24.93;15.93;;;;;;;;;;6215271;23;20173;-91
2023/12/09 09:42:57;;;;;;;26.80;15.20;;;;;;;;;;6214912;23;20174;-91
2023/12/09 09:45:26;;;;;;;26.37;15.03;;;;;;;;;;6214823;23;20269;-91
2023/12/09 09:48:03;;;;;;;27.07;18.77;;;;;;;;;;6214808;23;20175;-91
2023/12/09 09:50:41;;;;;;;19.53;11.93;;;;;;;;;;6215301;23;20185;-91
2023/12/09 09:53:10;;;;;;;29.33;20.57;;;;;;;;;;6214039;23;20167;-91
2023/12/09 09:55:41;;;;;;;22.73;12.77;;;;;;;;;;6214849;23;20179;-91
2023/12/09 09:58:10;;;;;;;27.07;18.13;;;;;;;;;;6215945;23;20201;-91
2023/12/09 10:00:39;;;;;;;23.47;13.07;;;;;;;;;;6215400;23;20175;-91
2023/12/09 10:03:07;;;;;;;21.70;12.93;;;;;;;;;;6214602;23;20321;-91
2023/12/09 10:05:38;;;;;;;26.00;14.77;;;;;;;;;;6214554;23;20168;-92
2023/12/09 10:08:06;;;;;;;22.83;13.60;;;;;;;;;;6215177;23;20198;-91
2023/12/09 10:10:35;;;;;;;22.80;13.33;;;;;;;;;;6215359;23;20172;-91
2023/12/09 10:13:03;;;;;;;23.43;13.13;;;;;;;;;;6214675;23;20172;-90
2023/12/09 10:15:32;;;;;;;28.17;12.73;;;;;;;;;;6214696;23;20299;-90
2023/12/09 10:18:03;;;;;;;27.23;16.53;;;;;;;;;;6215382;23;20170;-91
2023/12/09 10:20:35;;;;;;;28.53;14.37;;;;;;;;;;6215108;23;20171;-91
2023/12/09 10:23:05;;;;;;;24.60;11.70;;;;;;;;;;6214762;23;20221;-91
2023/12/09 10:25:34;;;;;;;23.50;10.73;;;;;;;;;;6215161;23;20517;-91
2023/12/09 10:28:02;;;;;;;24.07;13.73;;;;;;;;;;6215314;23;20210;-90
2023/12/09 10:30:31;;;;;;;22.03;14.87;;;;;;;;;;6216291;23;20179;-91
2023/12/09 10:33:00;;;;;;;20.80;9.87;;;;;;;;;;6214579;23;20167;-91
2023/12/09 10:35:29;;;;;;;20.73;11.50;;;;;;;;;;6214861;23;20176;-91
2023/12/09 10:38:02;;;;;;;29.80;13.87;;;;;;;;;;6214658;23;20198;-91
2023/12/09 10:40:33;;;;;;;18.60;12.50;;;;;;;;;;6214870;23;20177;-91
2023/12/09 10:43:03;;;;;;;21.30;11.50;;;;;;;;;;6214053;23;20174;-91
2023/12/09 10:45:32;;;;;;;18.57;11.37;;;;;;;;;;6214777;23;20293;-91
2023/12/09 10:48:01;;;;;;;21.47;11.70;;;;;;;;;;6214931;23;20178;-91
2023/12/09 10:50:31;;;;;;;17.83;9.63;;;;;;;;;;6215185;23;20181;-91
2023/12/09 10:53:00;;;;;;;19.43;10.60;;;;;;;;;;6214574;23;20205;-90
2023/12/09 10:55:29;;;;;;;22.73;10.43;;;;;;;;;;6214467;23;20269;-91
2023/12/09 10:57:59;;;;;;;19.40;9.33;;;;;;;;;;6214581;23;20222;-91
2023/12/09 11:00:30;;;;;;;16.60;6.87;;;;;;;;;;6214191;23;20251;-90
2023/12/09 11:02:59;;;;;;;18.17;9.57;;;;;;;;;;6214026;23;20174;-91
2023/12/09 11:05:28;;;;;;;9.47;3.67;;;;;;;;;;6214187;23;20190;-91
2023/12/09 11:07:57;;;;;;;11.60;6.13;;;;;;;;;;6213989;23;20172;-91
2023/12/09 11:10:26;;;;;;;11.83;6.37;;;;;;;;;;6214470;23;20178;-91
2023/12/09 11:12:54;;;;;;;16.80;8.63;;;;;;;;;;6214116;23;20181;-90
2023/12/09 11:15:30;;;;;;;17.23;8.43;;;;;;;;;;6214464;23;20171;-92
2023/12/09 11:18:08;;;;;;;15.00;7.23;;;;;;;;;;6215095;23;20174;-91
2023/12/09 11:20:39;;;;;;;17.90;8.60;;;;;;;;;;6214728;23;20168;-91
2023/12/09 11:23:10;;;;;;;16.87;7.20;;;;;;;;;;6215227;23;20191;-91
2023/12/09 11:25:40;;;;;;;10.60;5.83;;;;;;;;;;6214581;23;20190;-89
2023/12/09 11:28:09;;;;;;;15.83;7.07;;;;;;;;;;6214549;23;20214;-91
2023/12/09 11:30:41;;;;;;;13.47;6.97;;;;;;;;;;6214573;23;20226;-90
2023/12/09 11:33:10;;;;;;;18.47;7.67;;;;;;;;;;6214190;23;20182;-91
2023/12/09 11:35:39;;;;;;;11.50;6.43;;;;;;;;;;6213965;23;20224;-91
2023/12/09 11:38:09;;;;;;;13.20;7.00;;;;;;;;;;6214677;23;20171;-91
2023/12/09 11:40:36;;;;;;;14.00;6.13;;;;;;;;;;6214661;23;20171;-90
2023/12/09 11:43:06;;;;;;;15.70;7.57;;;;;;;;;;6213889;23;20247;-91
2023/12/09 11:45:36;;;;;;;10.77;7.03;;;;;;;;;;6213544;23;20200;-91
2023/12/09 11:48:07;;;;;;;13.13;7.03;;;;;;;;;;6214903;23;20189;-90
2023/12/09 11:50:36;;;;;;;10.77;7.50;;;;;;;;;;6215109;23;20185;-89
2023/12/09 11:53:04;;;;;;;9.80;6.80;;;;;;;;;;6214246;23;20170;-91
2023/12/09 11:55:33;;;;;;;8.50;4.40;;;;;;;;;;6214028;23;20257;-91
2023/12/09 11:58:03;;;;;;;14.83;5.47;;;;;;;;;;6214517;23;20211;-91
2023/12/09 12:00:32;;;;;;;11.53;5.67;;;;;;;;;;6214124;23;20181;-91
2023/12/09 12:03:01;;;;;;;11.67;5.50;;;;;;;;;;6213989;23;20256;-92
2023/12/09 12:05:31;;;;;;;9.53;5.50;;;;;;;;;;6214060;23;20194;-90
2023/12/09 12:08:00;;;;;;;12.10;5.33;;;;;;;;;;6214646;23;20175;-91
2023/12/09 12:10:28;;;;;;;10.17;6.00;;;;;;;;;;6214839;23;20178;-91
2023/12/09 12:12:57;;;;;;;9.13;4.83;;;;;;;;;;6213780;23;20267;-91
2023/12/09 12:15:26;;;;;;;8.90;5.60;;;;;;;;;;6213779;23;20175;-91
2023/12/09 12:17:55;;;;;;;10.17;5.20;;;;;;;;;;6214056;23;20198;-91
2023/12/09 12:20:23;;;;;;;11.90;4.27;;;;;;;;;;6214466;23;20182;-91
2023/12/09 12:22:53;;;;;;;10.03;4.23;;;;;;;;;;6213788;23;20195;-91
2023/12/09 12:25:26;;;;;;;11.23;4.77;;;;;;;;;;6214023;23;20231;-91
2023/12/09 12:27:57;;;;;;;10.70;5.80;;;;;;;;;;6214159;23;20204;-92
2023/12/09 12:30:26;;;;;;;8.77;3.87;;;;;;;;;;6214742;23;20175;-91
2023/12/09 12:32:56;;;;;;;7.83;4.60;;;;;;;;;;6214117;23;20168;-91
2023/12/09 12:35:25;;;;;;;9.80;4.33;;;;;;;;;;6214138;23;20222;-91
2023/12/09 12:37:56;;;;;;;7.40;4.53;;;;;;;;;;6214663;23;20358;-91
2023/12/09 12:40:26;;;;;;;5.37;3.53;;;;;;;;;;6214718;23;20167;-91
2023/12/09 12:42:55;;;;;;;11.37;3.90;;;;;;;;;;6213130;23;20198;-90
2023/12/09 12:45:24;;;;;;;7.23;3.70;;;;;;;;;;6213562;23;20208;-90
2023/12/09 12:47:56;;;;;;;8.37;4.57;;;;;;;;;;6213706;23;20217;-91
2023/12/09 12:50:25;;;;;;;7.47;4.00;;;;;;;;;;6215607;23;20257;-91
2023/12/09 12:52:55;;;;;;;5.13;3.80;;;;;;;;;;6215462;23;20171;-90
2023/12/09 12:55:23;;;;;;;5.07;3.30;;;;;;;;;;6215587;23;20178;-91
2023/12/09 12:57:54;;;;;;;9.70;3.90;;;;;;;;;;6215800;23;20206;-91
2023/12/09 13:00:24;;;;;;;6.13;4.10;;;;;;;;;;6215846;23;20250;-91
2023/12/09 13:02:53;;;;;;;7.67;3.43;;;;;;;;;;6215339;23;20172;-91
2023/12/09 13:05:22;;;;;;;6.93;3.33;;;;;;;;;;6215196;23;20282;-91
2023/12/09 13:07:51;;;;;;;8.03;2.97;;;;;;;;;;6215318;23;20196;-91
2023/12/09 13:10:22;;;;;;;5.40;3.00;;;;;;;;;;6215785;23;20252;-91
2023/12/09 13:12:51;;;;;;;3.47;2.70;;;;;;;;;;6215015;23;20174;-91
2023/12/09 13:15:21;;;;;;;4.43;2.90;;;;;;;;;;6215398;23;20171;-90
2023/12/09 13:17:49;;;;;;;1.77;1.63;;;;;;;;;;6215757;23;20190;-91
2023/12/09 13:20:18;;;;;;;1.27;1.23;;;;;;;;;;6216634;23;20171;-91
2023/12/09 13:22:46;;;;;;;2.37;1.97;;;;;;;;;;6215144;23;20190;-91
2023/12/09 13:25:17;;;;;;;2.73;1.73;;;;;;;;;;6214605;23;20195;-90
2023/12/09 13:27:47;;;;;;;4.43;1.83;;;;;;;;;;6214534;23;20207;-91
2023/12/09 13:30:16;;;;;;;5.50;2.53;;;;;;;;;;6215420;23;20171;-90
2023/12/09 13:32:45;;;;;;;5.57;3.30;;;;;;;;;;6215166;23;20281;-91
2023/12/09 13:35:14;;;;;;;3.47;2.13;;;;;;;;;;6215085;23;20225;-91
2023/12/09 13:37:43;;;;;;;2.60;2.13;;;;;;;;;;6215164;23;20182;-91
2023/12/09 13:40:12;;;;;;;2.07;1.87;;;;;;;;;;6215814;23;20175;-91
2023/12/09 13:42:41;;;;;;;6.67;3.37;;;;;;;;;;6215073;23;20233;-91
2023/12/09 13:45:13;;;;;;;2.53;2.13;;;;;;;;;;6214920;23;20179;-91
2023/12/09 13:47:42;;;;;;;4.47;2.63;;;;;;;;;;6215799;23;20181;-91
2023/12/09 13:50:11;;;;;;;4.37;2.60;;;;;;;;;;6215759;23;20198;-91
2023/12/09 13:52:40;;;;;;;3.03;2.30;;;;;;;;;;6215270;23;20262;-91
2023/12/09 13:55:09;;;;;;;6.60;3.40;;;;;;;;;;6214788;23;20181;-91
2023/12/09 13:57:37;;;;;;;2.13;1.93;;;;;;;;;;6215394;23;20174;-91
2023/12/09 14:00:07;;;;;;;4.50;2.67;;;;;;;;;;6215463;23;20179;-91
2023/12/09 14:02:38;;;;;;;6.63;2.87;;;;;;;;;;6214678;23;20203;-91
2023/12/09 14:05:10;;;;;;;4.17;2.57;;;;;;;;;;6214239;23;20166;-91
2023/12/09 14:07:40;;;;;;;4.37;2.60;;;;;;;;;;6214909;23;20172;-92
2023/12/09 14:10:09;;;;;;;2.10;1.90;;;;;;;;;;6215009;23;20171;-91
2023/12/09 14:12:39;;;;;;;4.53;3.30;;;;;;;;;;6214647;23;20175;-91
2023/12/09 14:15:08;;;;;;;6.00;2.80;;;;;;;;;;6215191;23;20262;-92
2023/12/09 14:17:41;;;;;;;2.80;1.77;;;;;;;;;;6215416;23;20493;-91
2023/12/09 14:20:11;;;;;;;5.30;2.27;;;;;;;;;;6214633;23;20209;-91
2023/12/09 14:22:40;;;;;;;3.50;1.77;;;;;;;;;;6214083;23;20201;-91
2023/12/09 14:25:09;;;;;;;3.50;1.90;;;;;;;;;;6213844;23;20201;-91
2023/12/09 14:27:38;;;;;;;3.93;2.60;;;;;;;;;;6214691;23;20216;-91
2023/12/09 14:30:10;;;;;;;2.83;2.20;;;;;;;;;;6214767;23;20181;-91
2023/12/09 14:32:43;;;;;;;2.63;2.33;;;;;;;;;;6214154;23;20203;-91
2023/12/09 14:35:13;;;;;;;2.63;2.30;;;;;;;;;;6213584;23;20171;-91